sensor_id;sensor_type;location;lat;lon;timestamp;pressure;altitude;pressure_sealevel;temperature;humidity
74627;BME280;63132;52.268;5.192;2023-03-20T00:00:01;101844.09;;;7.30;80.23
74627;BME280;63132;52.268;5.192;2023-03-20T00:02:27;101856.72;;;7.25;80.42
74627;BME280;63132;52.268;5.192;2023-03-20T00:04:52;101849.25;;;7.33;79.50
74627;BME280;63132;52.268;5.192;2023-03-20T00:07:17;101855.47;;;7.32;79.85
74627;BME280;63132;52.268;5.192;2023-03-20T00:09:43;101848.75;;;7.25;79.84
74627;BME280;63132;52.268;5.192;2023-03-20T00:12:19;101840.63;;;7.29;79.18
74627;BME280;63132;52.268;5.192;2023-03-20T00:14:47;101836.41;;;7.25;79.40
74627;BME280;63132;52.268;5.192;2023-03-20T00:17:18;101837.56;;;7.37;79.20
74627;BME280;63132;52.268;5.192;2023-03-20T00:19:44;101842.63;;;7.42;78.84
74627;BME280;63132;52.268;5.192;2023-03-20T00:22:10;101847.41;;;7.35;78.69
74627;BME280;63132;52.268;5.192;2023-03-20T00:24:36;101841.53;;;7.28;79.39
74627;BME280;63132;52.268;5.192;2023-03-20T00:27:02;101828.53;;;7.24;78.81
74627;BME280;63132;52.268;5.192;2023-03-20T00:29:29;101824.78;;;7.28;78.96
74627;BME280;63132;52.268;5.192;2023-03-20T00:31:56;101820.28;;;7.30;78.71
74627;BME280;63132;52.268;5.192;2023-03-20T00:34:25;101835.97;;;7.15;79.08
74627;BME280;63132;52.268;5.192;2023-03-20T00:36:52;101833.03;;;7.39;77.74
74627;BME280;63132;52.268;5.192;2023-03-20T00:39:18;101834.53;;;7.45;77.81
74627;BME280;63132;52.268;5.192;2023-03-20T00:44:28;101852.13;;;7.28;78.45
74627;BME280;63132;52.268;5.192;2023-03-20T00:47:00;101857.81;;;7.38;77.84
74627;BME280;63132;52.268;5.192;2023-03-20T00:49:34;101879.28;;;7.32;77.18
74627;BME280;63132;52.268;5.192;2023-03-20T00:52:01;101889.75;;;7.35;77.88
74627;BME280;63132;52.268;5.192;2023-03-20T00:54:27;101894.25;;;7.33;76.52
74627;BME280;63132;52.268;5.192;2023-03-20T00:59:24;101886.06;;;7.38;76.07
74627;BME280;63132;52.268;5.192;2023-03-20T01:01:50;101877.75;;;7.45;75.69
74627;BME280;63132;52.268;5.192;2023-03-20T01:04:18;101857.66;;;7.41;75.41
74627;BME280;63132;52.268;5.192;2023-03-20T01:06:45;101849.19;;;7.34;74.65
74627;BME280;63132;52.268;5.192;2023-03-20T01:09:10;101856.88;;;7.39;74.89
74627;BME280;63132;52.268;5.192;2023-03-20T01:11:37;101879.22;;;7.33;74.68
74627;BME280;63132;52.268;5.192;2023-03-20T01:14:04;101890.75;;;7.32;74.73
74627;BME280;63132;52.268;5.192;2023-03-20T01:16:30;101885.75;;;7.26;75.52
74627;BME280;63132;52.268;5.192;2023-03-20T01:18:56;101874.41;;;7.42;73.69
74627;BME280;63132;52.268;5.192;2023-03-20T01:21:22;101881.03;;;7.51;73.38
74627;BME280;63132;52.268;5.192;2023-03-20T01:23:48;101885.09;;;7.40;73.74
74627;BME280;63132;52.268;5.192;2023-03-20T01:26:28;101883.28;;;7.41;73.37
74627;BME280;63132;52.268;5.192;2023-03-20T01:28:55;101884.13;;;7.41;73.68
74627;BME280;63132;52.268;5.192;2023-03-20T01:31:20;101877.59;;;7.31;74.61
74627;BME280;63132;52.268;5.192;2023-03-20T01:33:46;101877.28;;;7.37;74.21
74627;BME280;63132;52.268;5.192;2023-03-20T01:36:13;101883.19;;;7.25;74.66
74627;BME280;63132;52.268;5.192;2023-03-20T01:38:40;101875.31;;;7.23;74.93
74627;BME280;63132;52.268;5.192;2023-03-20T01:41:14;101867.13;;;7.28;75.14
74627;BME280;63132;52.268;5.192;2023-03-20T01:43:41;101866.75;;;7.18;75.23
74627;BME280;63132;52.268;5.192;2023-03-20T01:46:17;101861.47;;;6.98;75.90
74627;BME280;63132;52.268;5.192;2023-03-20T01:51:15;101871.34;;;6.75;76.69
74627;BME280;63132;52.268;5.192;2023-03-20T01:53:42;101866.19;;;6.72;76.93
74627;BME280;63132;52.268;5.192;2023-03-20T01:56:08;101875.34;;;6.65;77.26
74627;BME280;63132;52.268;5.192;2023-03-20T01:58:38;101865.03;;;6.59;78.23
74627;BME280;63132;52.268;5.192;2023-03-20T02:01:06;101875.34;;;6.65;77.29
74627;BME280;63132;52.268;5.192;2023-03-20T02:03:34;101872.19;;;6.76;76.85
74627;BME280;63132;52.268;5.192;2023-03-20T02:05:59;101871.72;;;6.87;77.14
74627;BME280;63132;52.268;5.192;2023-03-20T02:08:29;101859.41;;;6.67;77.42
74627;BME280;63132;52.268;5.192;2023-03-20T02:10:57;101866.84;;;6.78;77.96
74627;BME280;63132;52.268;5.192;2023-03-20T02:13:25;101850.47;;;6.69;77.64
74627;BME280;63132;52.268;5.192;2023-03-20T02:16:04;101844.19;;;6.72;77.51
74627;BME280;63132;52.268;5.192;2023-03-20T02:18:30;101848.03;;;6.84;77.29
74627;BME280;63132;52.268;5.192;2023-03-20T02:31:25;101841.50;;;6.91;76.41
74627;BME280;63132;52.268;5.192;2023-03-20T02:39:45;101837.25;;;6.69;76.62
74627;BME280;63132;52.268;5.192;2023-03-20T02:45:14;101833.47;;;6.75;76.75
74627;BME280;63132;52.268;5.192;2023-03-20T02:50:14;101817.59;;;6.75;76.26
74627;BME280;63132;52.268;5.192;2023-03-20T02:59:37;101769.44;;;6.30;78.50
74627;BME280;63132;52.268;5.192;2023-03-20T03:01:33;101773.44;;;6.19;78.67
74627;BME280;63132;52.268;5.192;2023-03-20T03:04:02;101786.13;;;6.30;77.90
74627;BME280;63132;52.268;5.192;2023-03-20T03:06:31;101795.88;;;6.30;77.96
74627;BME280;63132;52.268;5.192;2023-03-20T03:09:01;101791.56;;;6.27;77.85
74627;BME280;63132;52.268;5.192;2023-03-20T03:11:30;101793.16;;;6.31;77.54
74627;BME280;63132;52.268;5.192;2023-03-20T03:13:57;101795.44;;;6.39;76.92
74627;BME280;63132;52.268;5.192;2023-03-20T03:16:26;101797.88;;;6.44;76.98
74627;BME280;63132;52.268;5.192;2023-03-20T03:19:01;101802.75;;;6.34;77.17
74627;BME280;63132;52.268;5.192;2023-03-20T03:21:29;101798.16;;;6.37;77.28
74627;BME280;63132;52.268;5.192;2023-03-20T03:23:54;101796.78;;;6.28;77.43
74627;BME280;63132;52.268;5.192;2023-03-20T03:26:24;101794.28;;;6.25;76.99
74627;BME280;63132;52.268;5.192;2023-03-20T03:28:58;101787.28;;;6.24;77.30
74627;BME280;63132;52.268;5.192;2023-03-20T03:31:26;101788.84;;;6.28;76.85
74627;BME280;63132;52.268;5.192;2023-03-20T03:33:55;101787.44;;;6.21;77.06
74627;BME280;63132;52.268;5.192;2023-03-20T03:41:39;101773.72;;;6.32;76.14
74627;BME280;63132;52.268;5.192;2023-03-20T03:46:55;101763.03;;;6.35;75.87
74627;BME280;63132;52.268;5.192;2023-03-20T03:49:26;101754.31;;;6.33;76.31
74627;BME280;63132;52.268;5.192;2023-03-20T03:51:55;101755.28;;;6.31;76.19
74627;BME280;63132;52.268;5.192;2023-03-20T03:54:25;101756.16;;;6.12;76.66
74627;BME280;63132;52.268;5.192;2023-03-20T03:56:53;101754.50;;;6.28;76.20
74627;BME280;63132;52.268;5.192;2023-03-20T03:59:38;101760.31;;;6.37;75.41
74627;BME280;63132;52.268;5.192;2023-03-20T04:02:05;101751.44;;;6.38;75.78
74627;BME280;63132;52.268;5.192;2023-03-20T04:04:35;101753.16;;;6.39;75.83
74627;BME280;63132;52.268;5.192;2023-03-20T04:07:02;101744.09;;;6.25;76.30
74627;BME280;63132;52.268;5.192;2023-03-20T04:09:28;101745.34;;;6.36;76.03
74627;BME280;63132;52.268;5.192;2023-03-20T04:11:54;101742.88;;;6.33;76.13
74627;BME280;63132;52.268;5.192;2023-03-20T04:14:20;101750.28;;;6.24;76.22
74627;BME280;63132;52.268;5.192;2023-03-20T04:16:46;101745.16;;;6.41;75.41
74627;BME280;63132;52.268;5.192;2023-03-20T04:19:12;101750.28;;;6.24;76.13
74627;BME280;63132;52.268;5.192;2023-03-20T04:21:37;101746.22;;;6.36;75.69
74627;BME280;63132;52.268;5.192;2023-03-20T04:24:03;101758.59;;;6.17;76.26
74627;BME280;63132;52.268;5.192;2023-03-20T04:26:29;101761.00;;;6.21;76.57
74627;BME280;63132;52.268;5.192;2023-03-20T04:28:54;101755.81;;;6.39;76.24
74627;BME280;63132;52.268;5.192;2023-03-20T04:31:20;101751.84;;;6.28;75.65
74627;BME280;63132;52.268;5.192;2023-03-20T04:33:45;101752.28;;;6.38;75.93
74627;BME280;63132;52.268;5.192;2023-03-20T04:36:11;101749.88;;;6.34;75.83
74627;BME280;63132;52.268;5.192;2023-03-20T04:38:36;101751.75;;;6.32;75.92
74627;BME280;63132;52.268;5.192;2023-03-20T04:41:03;101746.56;;;6.28;76.07
74627;BME280;63132;52.268;5.192;2023-03-20T04:43:28;101748.84;;;6.17;76.06
74627;BME280;63132;52.268;5.192;2023-03-20T04:45:54;101749.56;;;6.21;76.28
74627;BME280;63132;52.268;5.192;2023-03-20T04:48:19;101746.66;;;6.27;76.04
74627;BME280;63132;52.268;5.192;2023-03-20T04:50:46;101745.94;;;6.23;75.55
74627;BME280;63132;52.268;5.192;2023-03-20T04:53:13;101745.00;;;6.24;76.26
74627;BME280;63132;52.268;5.192;2023-03-20T04:55:39;101737.84;;;6.26;75.88
74627;BME280;63132;52.268;5.192;2023-03-20T04:58:05;101736.16;;;6.25;75.91
74627;BME280;63132;52.268;5.192;2023-03-20T05:00:31;101735.16;;;6.28;76.29
74627;BME280;63132;52.268;5.192;2023-03-20T05:02:57;101726.81;;;6.18;76.46
74627;BME280;63132;52.268;5.192;2023-03-20T05:05:22;101736.16;;;6.25;76.20
74627;BME280;63132;52.268;5.192;2023-03-20T05:07:48;101731.41;;;6.13;76.81
74627;BME280;63132;52.268;5.192;2023-03-20T05:10:13;101737.00;;;6.07;76.45
74627;BME280;63132;52.268;5.192;2023-03-20T05:12:38;101742.00;;;6.13;76.30
74627;BME280;63132;52.268;5.192;2023-03-20T05:15:04;101732.13;;;5.97;76.98
74627;BME280;63132;52.268;5.192;2023-03-20T05:17:30;101735.66;;;6.17;76.77
74627;BME280;63132;52.268;5.192;2023-03-20T05:19:55;101730.94;;;6.24;75.89
74627;BME280;63132;52.268;5.192;2023-03-20T05:22:21;101739.09;;;5.98;77.32
74627;BME280;63132;52.268;5.192;2023-03-20T05:24:46;101724.50;;;6.10;76.49
74627;BME280;63132;52.268;5.192;2023-03-20T05:27:12;101725.88;;;6.19;75.50
74627;BME280;63132;52.268;5.192;2023-03-20T05:29:37;101740.13;;;6.15;76.21
74627;BME280;63132;52.268;5.192;2023-03-20T05:32:03;101737.94;;;6.25;76.04
74627;BME280;63132;52.268;5.192;2023-03-20T05:34:28;101735.19;;;6.07;76.82
74627;BME280;63132;52.268;5.192;2023-03-20T05:36:54;101740.22;;;6.13;76.59
74627;BME280;63132;52.268;5.192;2023-03-20T05:39:20;101745.44;;;6.15;76.70
74627;BME280;63132;52.268;5.192;2023-03-20T05:41:46;101752.56;;;6.13;76.25
74627;BME280;63132;52.268;5.192;2023-03-20T05:44:11;101753.50;;;6.12;76.61
74627;BME280;63132;52.268;5.192;2023-03-20T05:46:37;101746.72;;;6.25;76.29
74627;BME280;63132;52.268;5.192;2023-03-20T05:49:02;101748.59;;;6.23;76.53
74627;BME280;63132;52.268;5.192;2023-03-20T05:51:28;101744.50;;;6.16;76.38
74627;BME280;63132;52.268;5.192;2023-03-20T05:53:53;101745.72;;;6.09;76.49
74627;BME280;63132;52.268;5.192;2023-03-20T05:56:18;101747.28;;;6.13;76.63
74627;BME280;63132;52.268;5.192;2023-03-20T05:58:44;101745.66;;;6.10;76.59
74627;BME280;63132;52.268;5.192;2023-03-20T06:01:09;101749.16;;;6.11;76.95
74627;BME280;63132;52.268;5.192;2023-03-20T06:03:35;101755.81;;;5.99;77.23
74627;BME280;63132;52.268;5.192;2023-03-20T06:06:01;101748.50;;;6.06;76.88
74627;BME280;63132;52.268;5.192;2023-03-20T06:08:26;101738.72;;;6.08;77.42
74627;BME280;63132;52.268;5.192;2023-03-20T06:10:52;101742.44;;;6.23;76.65
74627;BME280;63132;52.268;5.192;2023-03-20T06:13:17;101740.50;;;6.26;76.86
74627;BME280;63132;52.268;5.192;2023-03-20T06:15:43;101746.28;;;6.15;76.67
74627;BME280;63132;52.268;5.192;2023-03-20T06:18:11;101744.28;;;6.21;76.93
74627;BME280;63132;52.268;5.192;2023-03-20T06:20:36;101750.44;;;6.21;77.20
74627;BME280;63132;52.268;5.192;2023-03-20T06:23:02;101748.59;;;6.23;76.87
74627;BME280;63132;52.268;5.192;2023-03-20T06:25:27;101757.13;;;6.09;77.33
74627;BME280;63132;52.268;5.192;2023-03-20T06:27:52;101760.38;;;6.16;77.61
74627;BME280;63132;52.268;5.192;2023-03-20T06:30:18;101767.16;;;6.22;77.82
74627;BME280;63132;52.268;5.192;2023-03-20T06:32:46;101760.66;;;6.29;77.61
74627;BME280;63132;52.268;5.192;2023-03-20T06:35:12;101757.16;;;6.28;77.31
74627;BME280;63132;52.268;5.192;2023-03-20T06:37:38;101757.03;;;6.32;77.07
74627;BME280;63132;52.268;5.192;2023-03-20T06:40:04;101760.44;;;6.34;77.80
74627;BME280;63132;52.268;5.192;2023-03-20T06:42:30;101765.88;;;6.50;76.79
74627;BME280;63132;52.268;5.192;2023-03-20T06:44:56;101768.59;;;6.48;76.68
74627;BME280;63132;52.268;5.192;2023-03-20T06:47:21;101767.38;;;6.36;76.80
74627;BME280;63132;52.268;5.192;2023-03-20T06:49:47;101761.66;;;6.46;77.06
74627;BME280;63132;52.268;5.192;2023-03-20T06:52:17;101762.72;;;6.42;76.64
74627;BME280;63132;52.268;5.192;2023-03-20T06:54:43;101765.94;;;6.48;77.38
74627;BME280;63132;52.268;5.192;2023-03-20T06:57:09;101760.41;;;6.53;76.74
74627;BME280;63132;52.268;5.192;2023-03-20T06:59:35;101768.59;;;6.48;76.47
74627;BME280;63132;52.268;5.192;2023-03-20T07:02:01;101763.13;;;6.51;76.86
74627;BME280;63132;52.268;5.192;2023-03-20T07:04:26;101756.34;;;6.46;76.71
74627;BME280;63132;52.268;5.192;2023-03-20T07:06:52;101754.13;;;6.56;76.31
74627;BME280;63132;52.268;5.192;2023-03-20T07:09:17;101763.22;;;6.50;76.36
74627;BME280;63132;52.268;5.192;2023-03-20T07:11:43;101769.66;;;6.44;76.87
74627;BME280;63132;52.268;5.192;2023-03-20T07:14:09;101778.44;;;6.45;76.67
74627;BME280;63132;52.268;5.192;2023-03-20T07:16:34;101772.88;;;6.51;76.46
74627;BME280;63132;52.268;5.192;2023-03-20T07:19:00;101771.16;;;6.50;76.95
74627;BME280;63132;52.268;5.192;2023-03-20T07:21:26;101778.81;;;6.56;76.54
74627;BME280;63132;52.268;5.192;2023-03-20T07:23:52;101782.31;;;6.57;76.64
74627;BME280;63132;52.268;5.192;2023-03-20T07:26:18;101777.59;;;6.44;76.51
74627;BME280;63132;52.268;5.192;2023-03-20T07:28:43;101780.72;;;6.53;76.56
74627;BME280;63132;52.268;5.192;2023-03-20T07:31:18;101783.38;;;6.53;76.27
74627;BME280;63132;52.268;5.192;2023-03-20T07:33:44;101778.72;;;6.58;75.89
74627;BME280;63132;52.268;5.192;2023-03-20T07:36:09;101775.56;;;6.69;75.52
74627;BME280;63132;52.268;5.192;2023-03-20T07:38:35;101782.97;;;6.80;75.34
74627;BME280;63132;52.268;5.192;2023-03-20T07:41:00;101784.69;;;6.81;75.02
74627;BME280;63132;52.268;5.192;2023-03-20T07:43:26;101776.44;;;6.69;75.19
74627;BME280;63132;52.268;5.192;2023-03-20T07:45:51;101782.44;;;6.73;75.26
74627;BME280;63132;52.268;5.192;2023-03-20T07:48:16;101776.44;;;6.69;75.12
74627;BME280;63132;52.268;5.192;2023-03-20T07:50:42;101782.97;;;6.80;74.93
74627;BME280;63132;52.268;5.192;2023-03-20T07:53:08;101780.66;;;6.91;74.50
74627;BME280;63132;52.268;5.192;2023-03-20T07:55:33;101785.50;;;6.83;74.83
74627;BME280;63132;52.268;5.192;2023-03-20T07:57:58;101786.47;;;6.80;75.22
74627;BME280;63132;52.268;5.192;2023-03-20T08:00:24;101780.13;;;6.84;74.80
74627;BME280;63132;52.268;5.192;2023-03-20T08:02:49;101781.31;;;6.96;73.97
74627;BME280;63132;52.268;5.192;2023-03-20T08:05:15;101777.88;;;6.94;74.38
74627;BME280;63132;52.268;5.192;2023-03-20T08:07:41;101777.16;;;7.10;74.00
74627;BME280;63132;52.268;5.192;2023-03-20T08:10:06;101783.28;;;7.10;73.53
74627;BME280;63132;52.268;5.192;2023-03-20T08:12:32;101783.06;;;7.15;73.69
74627;BME280;63132;52.268;5.192;2023-03-20T08:15:00;101770.75;;;7.14;73.46
74627;BME280;63132;52.268;5.192;2023-03-20T08:17:25;101779.78;;;7.10;72.63
74627;BME280;63132;52.268;5.192;2023-03-20T08:19:51;101772.00;;;7.25;72.54
74627;BME280;63132;52.268;5.192;2023-03-20T08:22:16;101777.63;;;7.36;71.99
74627;BME280;63132;52.268;5.192;2023-03-20T08:24:41;101776.06;;;7.32;72.11
74627;BME280;63132;52.268;5.192;2023-03-20T08:27:07;101775.88;;;7.53;71.58
74627;BME280;63132;52.268;5.192;2023-03-20T08:29:32;101775.13;;;7.51;71.55
74627;BME280;63132;52.268;5.192;2023-03-20T08:31:58;101779.16;;;7.58;71.66
74627;BME280;63132;52.268;5.192;2023-03-20T08:34:23;101784.09;;;7.48;71.63
74627;BME280;63132;52.268;5.192;2023-03-20T08:36:48;101780.72;;;7.62;71.63
74627;BME280;63132;52.268;5.192;2023-03-20T08:39:14;101783.94;;;7.85;71.57
74627;BME280;63132;52.268;5.192;2023-03-20T08:41:39;101785.03;;;7.81;71.49
74627;BME280;63132;52.268;5.192;2023-03-20T08:44:07;101787.50;;;7.50;73.05
74627;BME280;63132;52.268;5.192;2023-03-20T08:46:33;101781.28;;;7.69;73.96
74627;BME280;63132;52.268;5.192;2023-03-20T08:48:58;101781.56;;;7.63;74.50
74627;BME280;63132;52.268;5.192;2023-03-20T08:51:25;101785.47;;;7.38;75.56
74627;BME280;63132;52.268;5.192;2023-03-20T08:53:50;101792.50;;;7.39;76.30
74627;BME280;63132;52.268;5.192;2023-03-20T08:56:16;101784.06;;;7.30;76.45
74627;BME280;63132;52.268;5.192;2023-03-20T08:58:41;101787.69;;;7.29;76.85
74627;BME280;63132;52.268;5.192;2023-03-20T09:01:08;101780.56;;;7.30;78.33
74627;BME280;63132;52.268;5.192;2023-03-20T09:03:34;101785.78;;;7.14;78.39
74627;BME280;63132;52.268;5.192;2023-03-20T09:06:03;101789.16;;;7.35;78.47
74627;BME280;63132;52.268;5.192;2023-03-20T09:08:28;101784.16;;;7.29;78.08
74627;BME280;63132;52.268;5.192;2023-03-20T09:10:54;101782.81;;;7.38;77.71
74627;BME280;63132;52.268;5.192;2023-03-20T09:13:19;101781.78;;;7.05;78.78
74627;BME280;63132;52.268;5.192;2023-03-20T09:15:46;101782.59;;;7.25;78.45
74627;BME280;63132;52.268;5.192;2023-03-20T09:18:12;101782.44;;;7.28;77.93
74627;BME280;63132;52.268;5.192;2023-03-20T09:20:37;101776.66;;;7.55;78.54
74627;BME280;63132;52.268;5.192;2023-03-20T09:23:03;101782.34;;;7.47;78.30
74627;BME280;63132;52.268;5.192;2023-03-20T09:25:28;101778.53;;;7.70;78.14
74627;BME280;63132;52.268;5.192;2023-03-20T09:27:54;101785.59;;;7.88;77.64
74627;BME280;63132;52.268;5.192;2023-03-20T09:30:21;101781.28;;;8.03;77.98
74627;BME280;63132;52.268;5.192;2023-03-20T09:32:50;101776.06;;;8.17;77.34
74627;BME280;63132;52.268;5.192;2023-03-20T09:35:16;101769.28;;;7.96;77.52
74627;BME280;63132;52.268;5.192;2023-03-20T09:37:42;101776.78;;;8.37;77.11
74627;BME280;63132;52.268;5.192;2023-03-20T09:40:19;101763.38;;;8.24;77.13
74627;BME280;63132;52.268;5.192;2023-03-20T09:45:54;101774.16;;;8.37;76.65
74627;BME280;63132;52.268;5.192;2023-03-20T09:48:37;101770.69;;;8.19;77.67
74627;BME280;63132;52.268;5.192;2023-03-20T09:53:43;101767.56;;;8.45;77.12
74627;BME280;63132;52.268;5.192;2023-03-20T09:56:20;101760.03;;;8.53;76.69
74627;BME280;63132;52.268;5.192;2023-03-20T09:58:55;101771.88;;;8.63;76.64
74627;BME280;63132;52.268;5.192;2023-03-20T10:01:25;101770.06;;;8.64;75.85
74627;BME280;63132;52.268;5.192;2023-03-20T10:03:57;101767.81;;;9.05;75.70
74627;BME280;63132;52.268;5.192;2023-03-20T10:06:24;101762.41;;;9.06;75.29
74627;BME280;63132;52.268;5.192;2023-03-20T10:08:50;101773.38;;;9.00;76.48
74627;BME280;63132;52.268;5.192;2023-03-20T10:22:27;101770.75;;;8.84;75.61
74627;BME280;63132;52.268;5.192;2023-03-20T10:25:06;101767.88;;;9.03;75.90
74627;BME280;63132;52.268;5.192;2023-03-20T10:27:42;101755.41;;;8.73;75.96
74627;BME280;63132;52.268;5.192;2023-03-20T10:33:01;101763.41;;;8.07;77.79
74627;BME280;63132;52.268;5.192;2023-03-20T10:35:57;101766.78;;;7.92;78.32
74627;BME280;63132;52.268;5.192;2023-03-20T10:38:30;101761.66;;;7.89;78.43
74627;BME280;63132;52.268;5.192;2023-03-20T10:40:58;101758.03;;;8.08;78.01
74627;BME280;63132;52.268;5.192;2023-03-20T10:43:30;101760.56;;;8.44;77.92
74627;BME280;63132;52.268;5.192;2023-03-20T10:46:05;101761.06;;;8.34;77.88
74627;BME280;63132;52.268;5.192;2023-03-20T10:48:41;101752.16;;;8.35;78.09
74627;BME280;63132;52.268;5.192;2023-03-20T10:54:04;101746.00;;;8.19;77.97
74627;BME280;63132;52.268;5.192;2023-03-20T10:56:43;101750.03;;;8.26;78.58
74627;BME280;63132;52.268;5.192;2023-03-20T10:59:21;101752.41;;;8.14;78.21
74627;BME280;63132;52.268;5.192;2023-03-20T11:01:47;101754.88;;;8.01;79.60
74627;BME280;63132;52.268;5.192;2023-03-20T11:04:12;101749.47;;;8.03;79.31
74627;BME280;63132;52.268;5.192;2023-03-20T11:06:53;101752.63;;;8.10;79.41
74627;BME280;63132;52.268;5.192;2023-03-20T11:09:24;101747.72;;;8.36;77.87
74627;BME280;63132;52.268;5.192;2023-03-20T11:11:59;101744.97;;;8.37;79.06
74627;BME280;63132;52.268;5.192;2023-03-20T11:14:32;101738.56;;;8.41;78.29
74627;BME280;63132;52.268;5.192;2023-03-20T11:17:00;101734.38;;;8.70;78.91
74627;BME280;63132;52.268;5.192;2023-03-20T11:19:32;101730.78;;;8.71;77.38
74627;BME280;63132;52.268;5.192;2023-03-20T11:22:00;101735.66;;;8.46;77.16
74627;BME280;63132;52.268;5.192;2023-03-20T11:24:35;101738.97;;;8.50;78.24
74627;BME280;63132;52.268;5.192;2023-03-20T11:27:10;101733.66;;;8.50;77.80
74627;BME280;63132;52.268;5.192;2023-03-20T11:29:38;101723.75;;;8.53;78.65
74627;BME280;63132;52.268;5.192;2023-03-20T11:34:52;101711.75;;;8.79;76.33
74627;BME280;63132;52.268;5.192;2023-03-20T11:37:32;101715.63;;;8.73;76.63
74627;BME280;63132;52.268;5.192;2023-03-20T11:40:06;101707.66;;;8.73;77.53
74627;BME280;63132;52.268;5.192;2023-03-20T11:42:35;101712.31;;;8.53;78.04
74627;BME280;63132;52.268;5.192;2023-03-20T11:45:19;101721.03;;;8.23;79.66
74627;BME280;63132;52.268;5.192;2023-03-20T11:47:49;101720.31;;;8.19;79.70
74627;BME280;63132;52.268;5.192;2023-03-20T11:50:32;101729.38;;;7.99;80.58
74627;BME280;63132;52.268;5.192;2023-03-20T11:53:18;101726.13;;;8.10;80.89
74627;BME280;63132;52.268;5.192;2023-03-20T11:56:42;101725.94;;;7.97;81.47
74627;BME280;63132;52.268;5.192;2023-03-20T12:01:20;101729.56;;;8.12;82.14
74627;BME280;63132;52.268;5.192;2023-03-20T12:06:35;101722.78;;;8.06;82.05
74627;BME280;63132;52.268;5.192;2023-03-20T12:09:06;101710.22;;;8.42;81.50
74627;BME280;63132;52.268;5.192;2023-03-20T12:14:22;101715.88;;;8.84;80.49
74627;BME280;63132;52.268;5.192;2023-03-20T12:17:06;101712.66;;;8.94;80.72
74627;BME280;63132;52.268;5.192;2023-03-20T12:19:37;101715.78;;;8.86;80.57
74627;BME280;63132;52.268;5.192;2023-03-20T12:22:24;101714.59;;;8.27;80.99
74627;BME280;63132;52.268;5.192;2023-03-20T12:25:06;101719.91;;;8.43;81.72
74627;BME280;63132;52.268;5.192;2023-03-20T12:27:42;101714.69;;;8.25;81.86
74627;BME280;63132;52.268;5.192;2023-03-20T12:33:03;101703.22;;;8.90;81.81
74627;BME280;63132;52.268;5.192;2023-03-20T12:35:36;101706.47;;;8.79;80.36
74627;BME280;63132;52.268;5.192;2023-03-20T12:38:17;101707.78;;;8.55;81.80
74627;BME280;63132;52.268;5.192;2023-03-20T12:40:45;101703.19;;;8.59;82.14
74627;BME280;63132;52.268;5.192;2023-03-20T12:43:14;101705.00;;;8.73;81.76
74627;BME280;63132;52.268;5.192;2023-03-20T12:45:51;101697.16;;;8.55;81.83
74627;BME280;63132;52.268;5.192;2023-03-20T12:48:39;101700.16;;;8.49;82.06
74627;BME280;63132;52.268;5.192;2023-03-20T12:56:47;101689.19;;;8.55;82.01
74627;BME280;63132;52.268;5.192;2023-03-20T13:05:27;101687.50;;;8.38;82.01
74627;BME280;63132;52.268;5.192;2023-03-20T13:11:34;101673.88;;;8.44;82.19
74627;BME280;63132;52.268;5.192;2023-03-20T13:21:45;101678.69;;;8.37;83.21
74627;BME280;63132;52.268;5.192;2023-03-20T13:24:29;101681.09;;;8.26;83.52
74627;BME280;63132;52.268;5.192;2023-03-20T13:27:36;101675.69;;;8.27;83.32
74627;BME280;63132;52.268;5.192;2023-03-20T13:39:09;101664.06;;;8.30;83.60
74627;BME280;63132;52.268;5.192;2023-03-20T13:41:37;101660.91;;;8.39;83.44
74627;BME280;63132;52.268;5.192;2023-03-20T13:44:04;101661.16;;;8.35;83.00
74627;BME280;63132;52.268;5.192;2023-03-20T13:46:40;101654.81;;;8.37;82.50
74627;BME280;63132;52.268;5.192;2023-03-20T13:52:23;101653.09;;;8.36;83.87
74627;BME280;63132;52.268;5.192;2023-03-20T14:00:54;101649.09;;;8.45;83.30
74627;BME280;63132;52.268;5.192;2023-03-20T14:03:32;101657.53;;;8.52;82.78
74627;BME280;63132;52.268;5.192;2023-03-20T14:06:00;101643.19;;;8.56;82.62
74627;BME280;63132;52.268;5.192;2023-03-20T14:08:32;101652.94;;;8.39;82.23
74627;BME280;63132;52.268;5.192;2023-03-20T14:16:30;101643.69;;;8.47;83.83
74627;BME280;63132;52.268;5.192;2023-03-20T14:19:16;101652.41;;;8.33;83.85
74627;BME280;63132;52.268;5.192;2023-03-20T14:21:47;101653.81;;;8.24;83.62
74627;BME280;63132;52.268;5.192;2023-03-20T14:24:15;101654.16;;;8.17;83.98
74627;BME280;63132;52.268;5.192;2023-03-20T14:26:42;101645.84;;;8.24;84.58
74627;BME280;63132;52.268;5.192;2023-03-20T14:31:38;101642.69;;;8.33;84.62
74627;BME280;63132;52.268;5.192;2023-03-20T14:37:02;101646.38;;;8.14;84.17
74627;BME280;63132;52.268;5.192;2023-03-20T14:44:47;101642.34;;;8.39;83.56
74627;BME280;63132;52.268;5.192;2023-03-20T14:47:33;101638.75;;;8.57;83.65
74627;BME280;63132;52.268;5.192;2023-03-20T14:52:59;101638.34;;;8.32;84.72
74627;BME280;63132;52.268;5.192;2023-03-20T14:58:26;101637.38;;;8.49;84.51
74627;BME280;63132;52.268;5.192;2023-03-20T15:00:50;101634.03;;;8.46;83.60
74627;BME280;63132;52.268;5.192;2023-03-20T15:03:17;101633.53;;;8.39;84.16
74627;BME280;63132;52.268;5.192;2023-03-20T15:05:43;101624.13;;;8.33;84.50
74627;BME280;63132;52.268;5.192;2023-03-20T15:08:23;101629.59;;;8.30;84.71
74627;BME280;63132;52.268;5.192;2023-03-20T15:10:53;101631.16;;;8.18;84.96
74627;BME280;63132;52.268;5.192;2023-03-20T15:13:21;101630.81;;;8.08;85.50
74627;BME280;63132;52.268;5.192;2023-03-20T15:18:19;101623.69;;;8.25;85.78
74627;BME280;63132;52.268;5.192;2023-03-20T15:20:45;101621.56;;;8.15;85.63
74627;BME280;63132;52.268;5.192;2023-03-20T15:23:12;101614.75;;;8.11;85.86
74627;BME280;63132;52.268;5.192;2023-03-20T15:25:48;101620.66;;;8.16;86.18
74627;BME280;63132;52.268;5.192;2023-03-20T15:28:19;101616.13;;;8.19;85.92
74627;BME280;63132;52.268;5.192;2023-03-20T15:30:48;101616.88;;;8.21;86.22
74627;BME280;63132;52.268;5.192;2023-03-20T15:33:23;101618.56;;;8.22;85.71